Fairplay, Maryland
Current Conditions -  °F | °C
As of 5:53 AM on Monday 22 Dec 2014 (Local Time) from KHGR Reporting Station
Broken Clouds Broken Clouds  
Wind Chill: -8°   Ceiling: 3800
Heat Index: -4°   Visibility: 7mi
Dew Point: -7°   Wind: 6mph
Humidity: 81%   Direction: 310°NW
Pressure: 30.24"   Gusts: NA
Location:  39.54°N, 77.75°W
Report Text: KHGR 221053Z AUTO 31005KT 7SM BKN038 M04/M07 A3024 RMK AO2 SLP260 T10391067
Loading
Personal Weather Stations






























Interactive Weather Map New forecast layout! Learn more

10-Day Weather Forecast

Advertisements
Track Severe Weather on mobile